Time,TemperatureF,DewpointF,PressureIn,WindDirection,WindDirectionDegrees,WindSpeedMPH,WindSpeedGustMPH,Humidity,HourlyPrecipIn,Conditions,Clouds,dailyrainin,SoftwareType,DateUTC
2013-05-14 00:04:00,56.6,50.0,29.96,SSE,153,0.0,-999.0,79,-99.99,,,0.00,weatherlink.com 1.10,2013-05-14 07:04:00,
2013-05-14 00:19:00,56.0,50.0,29.96,SSE,153,0.0,-999.0,80,-99.99,,,0.00,weatherlink.com 1.10,2013-05-14 07:19:00,
2013-05-14 00:34:00,55.7,50.0,29.96,SSE,153,0.0,-999.0,82,-99.99,,,0.00,weatherlink.com 1.10,2013-05-14 07:34:00,
2013-05-14 00:49:00,55.9,51.0,29.96,South,178,0.0,-999.0,83,-99.99,,,0.00,weatherlink.com 1.10,2013-05-14 07:49:00,
2013-05-14 01:04:00,55.9,51.0,29.96,South,178,0.0,-999.0,83,-99.99,,,0.00,weatherlink.com 1.10,2013-05-14 08:04:00,
2013-05-14 01:19:00,55.6,51.0,29.96,SSW,198,0.0,-999.0,83,-99.99,,,0.00,weatherlink.com 1.10,2013-05-14 08:19:00,
2013-05-14 01:34:00,55.1,50.0,29.96,SSW,193,3.0,-999.0,83,-99.99,,,0.00,weatherlink.com 1.10,2013-05-14 08:34:00,
2013-05-14 01:49:00,54.7,50.0,29.95,SW,230,0.0,-999.0,83,-99.99,,,0.00,weatherlink.com 1.10,2013-05-14 08:49:00,
2013-05-14 02:04:00,54.4,50.0,29.95,South,186,0.0,-999.0,84,-99.99,,,0.00,weatherlink.com 1.10,2013-05-14 09:04:00,
2013-05-14 02:19:00,54.4,50.0,29.95,SE,125,0.0,-999.0,85,-99.99,,,0.00,weatherlink.com 1.10,2013-05-14 09:19:00,
2013-05-14 02:34:00,54.4,50.0,29.95,SSE,167,1.0,-999.0,85,-99.99,,,0.00,weatherlink.com 1.10,2013-05-14 09:34:00,
2013-05-14 02:49:00,54.4,50.0,29.95,East,87,1.0,-999.0,85,-99.99,,,0.00,weatherlink.com 1.10,2013-05-14 09:49:00,
2013-05-14 03:04:00,54.1,50.0,29.94,SE,141,0.0,-999.0,85,-99.99,,,0.00,weatherlink.com 1.10,2013-05-14 10:04:00,
2013-05-14 03:19:00,53.9,50.0,29.94,ENE,77,0.0,-999.0,85,-99.99,,,0.00,weatherlink.com 1.10,2013-05-14 10:19:00,
2013-05-14 03:34:00,53.9,50.0,29.94,SSW,199,0.0,-999.0,85,-99.99,,,0.00,weatherlink.com 1.10,2013-05-14 10:34:00,
2013-05-14 03:49:00,53.6,49.0,29.93,South,182,1.0,-999.0,85,-99.99,,,0.00,weatherlink.com 1.10,2013-05-14 10:49:00,
2013-05-14 04:04:00,53.6,50.0,29.94,SW,223,0.0,-999.0,86,-99.99,,,0.00,weatherlink.com 1.10,2013-05-14 11:04:00,
2013-05-14 04:19:00,53.5,50.0,29.94,South,190,3.0,-999.0,86,-99.99,,,0.00,weatherlink.com 1.10,2013-05-14 11:19:00,
2013-05-14 04:34:00,53.6,50.0,29.94,SSE,150,1.0,-999.0,87,-99.99,,,0.00,weatherlink.com 1.10,2013-05-14 11:34:00,
2013-05-14 04:49:00,53.6,50.0,29.93,South,189,2.0,-999.0,87,-99.99,,,0.00,weatherlink.com 1.10,2013-05-14 11:49:00,
2013-05-14 05:04:00,53.6,50.0,29.93,WSW,254,0.0,-999.0,87,-99.99,,,0.00,weatherlink.com 1.10,2013-05-14 12:04:00,
2013-05-14 05:19:00,53.6,50.0,29.93,ENE,57,0.0,-999.0,87,-99.99,,,0.00,weatherlink.com 1.10,2013-05-14 12:19:00,
2013-05-14 05:34:00,53.6,50.0,29.93,SSE,161,0.0,-999.0,87,-99.99,,,0.00,weatherlink.com 1.10,2013-05-14 12:34:00,
2013-05-14 05:49:00,53.6,50.0,29.93,South,186,2.0,-999.0,87,-99.99,,,0.00,weatherlink.com 1.10,2013-05-14 12:49:00,
2013-05-14 06:04:00,53.8,50.0,29.94,SW,216,0.0,-999.0,87,-99.99,,,0.00,weatherlink.com 1.10,2013-05-14 13:04:00,
2013-05-14 06:19:00,54.1,50.0,29.94,South,181,0.0,-999.0,87,-99.99,,,0.00,weatherlink.com 1.10,2013-05-14 13:19:00,
2013-05-14 06:34:00,54.2,51.0,29.93,SW,232,3.0,-999.0,87,-99.99,,,0.00,weatherlink.com 1.10,2013-05-14 13:34:00,
2013-05-14 06:49:00,54.1,50.0,29.94,SW,218,0.0,-999.0,86,-99.99,,,0.00,weatherlink.com 1.10,2013-05-14 13:49:00,
2013-05-14 07:04:00,54.2,50.0,29.95,WSW,250,0.0,-999.0,85,-99.99,,,0.00,weatherlink.com 1.10,2013-05-14 14:04:00,
2013-05-14 07:19:00,54.7,50.0,29.95,SSE,152,0.0,-999.0,84,-99.99,,,0.00,weatherlink.com 1.10,2013-05-14 14:19:00,
2013-05-14 07:34:00,55.0,50.0,29.95,South,169,1.0,-999.0,83,-99.99,,,0.00,weatherlink.com 1.10,2013-05-14 14:34:00,
2013-05-14 07:49:00,55.7,50.0,29.95,SSW,196,1.0,-999.0,82,-99.99,,,0.00,weatherlink.com 1.10,2013-05-14 14:49:00,
2013-05-14 08:04:00,57.0,50.0,29.94,SE,126,0.0,-999.0,78,-99.99,,,0.00,weatherlink.com 1.10,2013-05-14 15:04:00,
2013-05-14 08:19:00,58.3,51.0,29.95,West,266,2.0,-999.0,76,-99.99,,,0.00,weatherlink.com 1.10,2013-05-14 15:19:00,
2013-05-14 08:35:00,59.5,51.0,29.95,ENE,76,3.0,-999.0,74,-99.99,,,0.00,weatherlink.com 1.10,2013-05-14 15:35:00,
2013-05-14 08:50:00,60.9,51.0,29.96,East,101,0.0,-999.0,70,-99.99,,,0.00,weatherlink.com 1.10,2013-05-14 15:50:00,
2013-05-14 09:05:00,61.8,51.0,29.96,ENE,62,0.0,-999.0,68,-99.99,,,0.00,weatherlink.com 1.10,2013-05-14 16:05:00,
2013-05-14 09:20:00,62.3,51.0,29.96,NW,314,1.0,-999.0,66,-99.99,,,0.00,weatherlink.com 1.10,2013-05-14 16:20:00,
2013-05-14 09:35:00,62.6,51.0,29.96,ENE,64,1.0,-999.0,65,-99.99,,,0.00,weatherlink.com 1.10,2013-05-14 16:35:00,
2013-05-14 09:50:00,64.0,51.0,29.96,SW,219,0.0,-999.0,63,-99.99,,,0.00,weatherlink.com 1.10,2013-05-14 16:50:00,
2013-05-14 10:05:00,65.3,51.0,29.96,SW,224,1.0,-999.0,61,-99.99,,,0.00,weatherlink.com 1.10,2013-05-14 17:05:00,
2013-05-14 10:20:00,66.0,51.0,29.96,East,94,1.0,-999.0,59,-99.99,,,0.00,weatherlink.com 1.10,2013-05-14 17:20:00,
2013-05-14 10:35:00,66.1,50.0,29.96,SW,220,2.0,-999.0,57,-99.99,,,0.00,weatherlink.com 1.10,2013-05-14 17:35:00,
2013-05-14 10:50:00,66.6,51.0,29.96,SSE,157,3.0,-999.0,57,-99.99,,,0.00,weatherlink.com 1.10,2013-05-14 17:50:00,
2013-05-14 11:05:00,67.8,50.0,29.96,WSW,247,5.0,-999.0,54,-99.99,,,0.00,weatherlink.com 1.10,2013-05-14 18:05:00,
2013-05-14 11:20:00,67.8,51.0,29.97,SSE,149,2.0,-999.0,55,-99.99,,,0.00,weatherlink.com 1.10,2013-05-14 18:20:00,
2013-05-14 11:35:00,67.1,50.0,29.97,East,100,2.0,-999.0,54,-99.99,,,0.00,weatherlink.com 1.10,2013-05-14 18:35:00,
2013-05-14 12:06:00,68.8,50.0,29.98,WSW,244,1.0,-999.0,52,-99.99,,,0.00,weatherlink.com 1.10,2013-05-14 19:06:00,
2013-05-14 12:21:00,68.4,50.0,29.98,SSW,207,3.0,-999.0,52,-99.99,,,0.00,weatherlink.com 1.10,2013-05-14 19:21:00,
2013-05-14 12:35:00,67.9,49.0,29.97,SW,217,0.0,-999.0,52,-99.99,,,0.00,weatherlink.com 1.10,2013-05-14 19:35:00,
2013-05-14 12:50:00,68.6,49.0,29.97,ESE,115,0.0,-999.0,50,-99.99,,,0.00,weatherlink.com 1.10,2013-05-14 19:50:00,
2013-05-14 13:06:00,69.8,50.0,29.96,South,171,0.0,-999.0,49,-99.99,,,0.00,weatherlink.com 1.10,2013-05-14 20:06:00,
2013-05-14 13:21:00,69.4,48.0,29.96,East,93,0.0,-999.0,47,-99.99,,,0.00,weatherlink.com 1.10,2013-05-14 20:21:00,
2013-05-14 13:36:00,69.3,48.0,29.96,ESE,103,3.0,-999.0,47,-99.99,,,0.00,weatherlink.com 1.10,2013-05-14 20:36:00,
2013-05-14 13:51:00,69.3,48.0,29.96,WSW,242,2.0,-999.0,47,-99.99,,,0.00,weatherlink.com 1.10,2013-05-14 20:51:00,
2013-05-14 14:06:00,69.3,51.0,29.96,WSW,244,2.0,-999.0,52,-99.99,,,0.00,weatherlink.com 1.10,2013-05-14 21:06:00,
2013-05-14 14:21:00,68.9,50.0,29.96,SW,234,4.0,-999.0,52,-99.99,,,0.00,weatherlink.com 1.10,2013-05-14 21:21:00,
2013-05-14 14:36:00,67.8,49.0,29.96,SSW,205,0.0,-999.0,52,-99.99,,,0.00,weatherlink.com 1.10,2013-05-14 21:36:00,
2013-05-14 14:51:00,67.9,49.0,29.96,SW,216,1.0,-999.0,51,-99.99,,,0.00,weatherlink.com 1.10,2013-05-14 21:51:00,
2013-05-14 15:06:00,69.3,49.0,29.95,SSE,159,1.0,-999.0,49,-99.99,,,0.00,weatherlink.com 1.10,2013-05-14 22:06:00,
2013-05-14 15:21:00,69.3,48.0,29.95,SE,129,1.0,-999.0,47,-99.99,,,0.00,weatherlink.com 1.10,2013-05-14 22:21:00,
2013-05-14 15:37:00,68.3,48.0,29.95,ESE,117,1.0,-999.0,49,-99.99,,,0.00,weatherlink.com 1.10,2013-05-14 22:37:00,
2013-05-14 15:51:00,68.8,49.0,29.95,West,265,4.0,-999.0,49,-99.99,,,0.00,weatherlink.com 1.10,2013-05-14 22:51:00,
2013-05-14 16:07:00,68.4,48.0,29.95,South,176,0.0,-999.0,49,-99.99,,,0.00,weatherlink.com 1.10,2013-05-14 23:07:00,
2013-05-14 16:21:00,68.6,49.0,29.95,SSE,150,1.0,-999.0,49,-99.99,,,0.00,weatherlink.com 1.10,2013-05-14 23:21:00,
2013-05-14 16:36:00,67.8,48.0,29.95,SE,142,1.0,-999.0,50,-99.99,,,0.00,weatherlink.com 1.10,2013-05-14 23:36:00,
2013-05-14 16:52:00,67.6,48.0,29.95,NE,41,0.0,-999.0,50,-99.99,,,0.00,weatherlink.com 1.10,2013-05-14 23:52:00,
2013-05-14 17:06:00,67.1,48.0,29.95,WSW,252,2.0,-999.0,51,-99.99,,,0.00,weatherlink.com 1.10,2013-05-15 00:06:00,
2013-05-14 17:21:00,66.8,48.0,29.95,West,266,1.0,-999.0,51,-99.99,,,0.00,weatherlink.com 1.10,2013-05-15 00:21:00,
2013-05-14 17:36:00,67.4,48.0,29.95,SW,235,2.0,-999.0,50,-99.99,,,0.00,weatherlink.com 1.10,2013-05-15 00:36:00,
2013-05-14 17:51:00,67.3,48.0,29.95,SSW,205,1.0,-999.0,51,-99.99,,,0.00,weatherlink.com 1.10,2013-05-15 00:51:00,
2013-05-14 18:06:00,66.4,48.0,29.96,WSW,248,1.0,-999.0,52,-99.99,,,0.00,weatherlink.com 1.10,2013-05-15 01:06:00,
2013-05-14 18:21:00,65.8,48.0,29.95,South,189,0.0,-999.0,53,-99.99,,,0.00,weatherlink.com 1.10,2013-05-15 01:21:00,
2013-05-14 18:36:00,65.3,48.0,29.95,South,180,1.0,-999.0,54,-99.99,,,0.00,weatherlink.com 1.10,2013-05-15 01:36:00,
2013-05-14 18:51:00,63.7,48.0,29.95,SW,218,2.0,-999.0,56,-99.99,,,0.00,weatherlink.com 1.10,2013-05-15 01:51:00,
2013-05-14 19:06:00,62.6,46.0,29.95,SW,234,6.0,-999.0,56,-99.99,,,0.00,weatherlink.com 1.10,2013-05-15 02:06:00,
2013-05-14 19:21:00,61.8,47.0,29.95,SSE,157,3.0,-999.0,58,-99.99,,,0.00,weatherlink.com 1.10,2013-05-15 02:21:00,
2013-05-14 19:36:00,59.9,46.0,29.96,SSW,208,0.0,-999.0,60,-99.99,,,0.00,weatherlink.com 1.10,2013-05-15 02:36:00,
2013-05-14 19:51:00,59.6,47.0,29.95,SW,214,2.0,-999.0,63,-99.99,,,0.00,weatherlink.com 1.10,2013-05-15 02:51:00,
2013-05-14 20:06:00,59.0,46.0,29.96,ESE,120,0.0,-999.0,62,-99.99,,,0.00,weatherlink.com 1.10,2013-05-15 03:06:00,
2013-05-14 20:21:00,58.0,46.0,29.96,SE,130,2.0,-999.0,64,-99.99,,,0.00,weatherlink.com 1.10,2013-05-15 03:21:00,
2013-05-14 20:36:00,57.2,46.0,29.96,South,188,1.0,-999.0,66,-99.99,,,0.00,weatherlink.com 1.10,2013-05-15 03:36:00,
2013-05-14 20:51:00,56.6,46.0,29.97,SSW,196,2.0,-999.0,67,-99.99,,,0.00,weatherlink.com 1.10,2013-05-15 03:51:00,
2013-05-14 21:06:00,56.2,46.0,29.97,East,84,2.0,-999.0,68,-99.99,,,0.00,weatherlink.com 1.10,2013-05-15 04:06:00,
2013-05-14 21:21:00,55.7,45.0,29.98,WNW,286,2.0,-999.0,68,-99.99,,,0.00,weatherlink.com 1.10,2013-05-15 04:21:00,
2013-05-14 21:36:00,55.3,46.0,29.99,South,174,2.0,-999.0,70,-99.99,,,0.00,weatherlink.com 1.10,2013-05-15 04:36:00,
2013-05-14 21:51:00,54.8,46.0,29.99,SSE,159,2.0,-999.0,72,-99.99,,,0.00,weatherlink.com 1.10,2013-05-15 04:51:00,
2013-05-14 22:06:00,54.5,46.0,30.00,WSW,246,4.0,-999.0,73,-99.99,,,0.00,weatherlink.com 1.10,2013-05-15 05:06:00,
2013-05-14 22:21:00,54.2,46.0,30.01,SW,221,1.0,-999.0,73,-99.99,,,0.00,weatherlink.com 1.10,2013-05-15 05:21:00,
2013-05-14 22:36:00,53.9,46.0,30.01,SSE,154,0.0,-999.0,74,-99.99,,,0.00,weatherlink.com 1.10,2013-05-15 05:36:00,
2013-05-14 22:51:00,53.8,46.0,30.01,South,174,0.0,-999.0,74,-99.99,,,0.00,weatherlink.com 1.10,2013-05-15 05:51:00,
2013-05-14 23:06:00,53.5,45.0,30.01,ESE,117,2.0,-999.0,74,-99.99,,,0.00,weatherlink.com 1.10,2013-05-15 06:06:00,
2013-05-14 23:21:00,53.3,46.0,30.01,ESE,113,0.0,-999.0,75,-99.99,,,0.00,weatherlink.com 1.10,2013-05-15 06:21:00,
2013-05-14 23:36:00,53.2,45.0,30.01,WSW,256,0.0,-999.0,75,-99.99,,,0.00,weatherlink.com 1.10,2013-05-15 06:36:00,
2013-05-14 23:51:00,53.3,46.0,30.00,South,172,3.0,-999.0,76,-99.99,,,0.00,weatherlink.com 1.10,2013-05-15 06:51:00,